22°C Temp
16°C Dewpoint
69% Humidity
Temperature
16 KM/H
10 MPH
9 KTS
240°
West South
West

Wind Speed
Mostly Scattered
Clouds
Pressure 1015.92 (hPa) - 30 (in)
Visibility 6.2 (mi) - 10.0 (km)

Current Conditions
EGPH
Location 8(mi)
Metar :EGPH 161320Z 24009KT 210V280 9999 SCT027 22/16 Q1016
Tue 16th July 14:20 pm

Airport
  Metar Aviation API Data Provided by https://www.checkwx.com/ PHP scripts by weather34.com ©2019